Time;durP1;ratioP1;P1;durP2;ratioP2;P2;SDS_P1;SDS_P2;PMS_P1;PMS_P2;Temp;Humidity;BMP_temperature;BMP_pressure;BME280_temperature;BME280_humidity;BME280_pressure;Samples;Min_cycle;Max_cycle;Signal;HPM_P1;HPM_P2
2024/02/04 00:01:07;;;;;;;7.87;3.20;;;;;;;;;;4988349;28;20212;-82
2024/02/04 00:03:32;;;;;;;10.77;3.20;;;;;;;;;;5001137;28;20261;-83
2024/02/04 00:06:00;;;;;;;10.90;3.20;;;;;;;;;;4974363;28;20303;-83
2024/02/04 00:08:26;;;;;;;11.77;3.50;;;;;;;;;;4999807;28;20261;-83
2024/02/04 00:10:57;;;;;;;8.53;3.20;;;;;;;;;;5015440;28;20663;-81
2024/02/04 00:13:22;;;;;;;8.10;3.20;;;;;;;;;;4977746;28;20283;-83
2024/02/04 00:15:48;;;;;;;12.53;3.57;;;;;;;;;;4986084;28;20300;-84
2024/02/04 00:18:14;;;;;;;9.77;3.17;;;;;;;;;;5001869;28;20235;-83
2024/02/04 00:20:39;;;;;;;10.33;3.47;;;;;;;;;;4984108;28;21190;-82
2024/02/04 00:23:07;;;;;;;11.13;3.10;;;;;;;;;;4997313;28;20224;-82
2024/02/04 00:25:34;;;;;;;10.90;3.83;;;;;;;;;;4981640;28;20223;-82
2024/02/04 00:28:00;;;;;;;12.07;3.70;;;;;;;;;;4986789;28;20570;-80
2024/02/04 00:30:26;;;;;;;12.13;3.67;;;;;;;;;;4977548;28;20430;-81
2024/02/04 00:32:52;;;;;;;11.50;3.80;;;;;;;;;;5005099;28;20303;-82
2024/02/04 00:35:19;;;;;;;14.87;3.77;;;;;;;;;;4990170;28;20765;-82
2024/02/04 00:37:45;;;;;;;11.73;3.27;;;;;;;;;;4984704;28;20238;-81
2024/02/04 00:40:11;;;;;;;11.73;2.80;;;;;;;;;;4976281;28;20236;-82
2024/02/04 00:42:36;;;;;;;12.20;3.63;;;;;;;;;;4992695;28;20261;-81
2024/02/04 00:45:02;;;;;;;10.13;3.20;;;;;;;;;;4992524;28;20228;-83
2024/02/04 00:47:27;;;;;;;11.00;2.80;;;;;;;;;;4986797;28;20702;-83
2024/02/04 00:49:53;;;;;;;10.53;2.63;;;;;;;;;;4974773;28;20223;-82
2024/02/04 00:52:19;;;;;;;9.20;3.10;;;;;;;;;;4987738;28;20324;-82
2024/02/04 00:54:47;;;;;;;10.70;2.97;;;;;;;;;;4985872;28;20223;-81
2024/02/04 00:57:12;;;;;;;12.53;2.93;;;;;;;;;;4978178;28;20246;-80
2024/02/04 00:59:38;;;;;;;7.17;2.73;;;;;;;;;;4981504;28;20219;-81
2024/02/04 01:02:03;;;;;;;9.57;2.70;;;;;;;;;;4981610;28;20716;-82
2024/02/04 01:04:35;;;;;;;11.67;3.20;;;;;;;;;;5005278;28;20968;-83
2024/02/04 01:07:00;;;;;;;12.33;4.03;;;;;;;;;;4973121;28;20220;-81
2024/02/04 01:09:26;;;;;;;8.57;2.50;;;;;;;;;;5011709;28;20213;-81
2024/02/04 01:11:53;;;;;;;13.53;3.00;;;;;;;;;;4989693;28;20224;-82
2024/02/04 01:14:18;;;;;;;11.27;3.83;;;;;;;;;;4979752;28;20233;-82
2024/02/04 01:16:44;;;;;;;12.90;3.27;;;;;;;;;;4982532;28;20231;-83
2024/02/04 01:19:10;;;;;;;10.07;3.90;;;;;;;;;;4975614;28;20228;-82
2024/02/04 01:21:37;;;;;;;6.30;2.40;;;;;;;;;;5000516;28;20307;-81
2024/02/04 01:24:03;;;;;;;8.93;3.20;;;;;;;;;;4964358;28;20232;-82
2024/02/04 01:26:31;;;;;;;9.47;3.77;;;;;;;;;;4983913;28;20414;-82
2024/02/04 01:28:56;;;;;;;11.20;3.57;;;;;;;;;;5002872;28;20229;-83
2024/02/04 01:31:22;;;;;;;11.40;3.43;;;;;;;;;;4997074;28;20216;-83
2024/02/04 01:33:47;;;;;;;12.60;3.83;;;;;;;;;;5022569;28;20625;-85
2024/02/04 01:36:15;;;;;;;10.20;3.90;;;;;;;;;;4984847;28;20224;-84
2024/02/04 01:38:41;;;;;;;10.33;3.80;;;;;;;;;;4988726;28;20578;-83
2024/02/04 01:41:06;;;;;;;10.97;3.17;;;;;;;;;;4984864;28;20299;-82
2024/02/04 01:43:32;;;;;;;12.00;3.53;;;;;;;;;;4981536;28;20256;-81
2024/02/04 01:45:57;;;;;;;7.50;3.30;;;;;;;;;;4967848;28;20220;-82
2024/02/04 01:48:23;;;;;;;9.63;3.23;;;;;;;;;;4983253;28;20259;-84
2024/02/04 01:50:55;;;;;;;8.63;3.00;;;;;;;;;;4970126;28;20229;-84
2024/02/04 01:53:25;;;;;;;12.27;3.23;;;;;;;;;;4994805;28;20225;-84
2024/02/04 01:55:50;;;;;;;8.03;3.47;;;;;;;;;;4982728;28;20219;-83
2024/02/04 01:58:18;;;;;;;10.40;3.67;;;;;;;;;;4998684;28;20271;-83
2024/02/04 02:00:46;;;;;;;9.00;4.20;;;;;;;;;;4977718;28;20628;-81
2024/02/04 02:03:11;;;;;;;11.40;4.20;;;;;;;;;;4974216;28;20260;-83
2024/02/04 02:05:37;;;;;;;11.77;4.87;;;;;;;;;;5003178;28;20233;-82
2024/02/04 02:08:03;;;;;;;10.00;4.73;;;;;;;;;;4982506;28;20220;-83
2024/02/04 02:10:29;;;;;;;10.53;4.83;;;;;;;;;;4995248;28;20240;-84
2024/02/04 02:13:04;;;;;;;10.63;4.73;;;;;;;;;;4968357;28;20224;-82
2024/02/04 02:15:36;;;;;;;11.77;5.00;;;;;;;;;;4994798;28;20232;-82
2024/02/04 02:18:03;;;;;;;10.70;5.53;;;;;;;;;;4999203;28;20232;-85
2024/02/04 02:21:08;;;;;;;11.00;4.60;;;;;;;;;;4999545;28;20228;-85
2024/02/04 02:23:43;;;;;;;12.27;4.70;;;;;;;;;;5013314;28;20260;-84
2024/02/04 02:26:08;;;;;;;11.60;4.50;;;;;;;;;;4998402;28;20282;-83
2024/02/04 02:28:34;;;;;;;11.83;4.87;;;;;;;;;;4988108;28;20228;-81
2024/02/04 02:31:00;;;;;;;12.10;4.93;;;;;;;;;;4988183;28;20220;-81
2024/02/04 02:33:26;;;;;;;10.43;4.73;;;;;;;;;;4982545;28;20228;-85
2024/02/04 02:35:57;;;;;;;10.33;5.70;;;;;;;;;;4961968;28;20232;-82
2024/02/04 02:38:32;;;;;;;8.40;5.67;;;;;;;;;;5006659;28;20266;-82
2024/02/04 02:40:58;;;;;;;11.60;5.63;;;;;;;;;;4995786;28;20225;-85
2024/02/04 02:43:24;;;;;;;13.77;6.47;;;;;;;;;;4998127;28;20219;-81
2024/02/04 02:45:50;;;;;;;12.83;6.83;;;;;;;;;;4994917;28;20666;-83
2024/02/04 02:48:17;;;;;;;12.60;6.43;;;;;;;;;;4994102;28;20229;-84
2024/02/04 02:50:43;;;;;;;13.80;6.93;;;;;;;;;;5009633;28;20215;-83
2024/02/04 02:53:11;;;;;;;12.40;7.20;;;;;;;;;;4997425;28;20222;-84
2024/02/04 02:55:36;;;;;;;13.47;7.33;;;;;;;;;;5009711;28;20220;-83
2024/02/04 02:58:02;;;;;;;13.60;7.97;;;;;;;;;;5005907;28;20475;-84
2024/02/04 03:00:30;;;;;;;14.83;8.43;;;;;;;;;;4983272;28;20377;-83
2024/02/04 03:02:55;;;;;;;17.27;8.70;;;;;;;;;;4968983;28;20597;-82
2024/02/04 03:05:23;;;;;;;15.13;8.97;;;;;;;;;;5002294;28;20270;-84
2024/02/04 03:07:51;;;;;;;17.87;9.90;;;;;;;;;;4998655;28;20234;-82
2024/02/04 03:10:16;;;;;;;18.40;9.30;;;;;;;;;;4990077;28;20728;-83
2024/02/04 03:12:42;;;;;;;15.30;10.07;;;;;;;;;;4970473;28;20209;-83
2024/02/04 03:15:08;;;;;;;15.47;9.40;;;;;;;;;;4960550;28;20228;-81
2024/02/04 03:17:36;;;;;;;17.43;10.23;;;;;;;;;;4985061;28;20258;-83
2024/02/04 03:20:01;;;;;;;20.33;10.23;;;;;;;;;;4978395;28;20250;-81
2024/02/04 03:22:27;;;;;;;18.30;10.03;;;;;;;;;;4981109;28;20634;-81
2024/02/04 03:24:53;;;;;;;17.20;10.27;;;;;;;;;;4972985;28;20225;-82
2024/02/04 03:27:18;;;;;;;16.63;10.53;;;;;;;;;;4952198;28;20233;-82
2024/02/04 03:29:48;;;;;;;17.83;11.33;;;;;;;;;;4997426;28;20871;-82
2024/02/04 03:32:13;;;;;;;19.70;11.20;;;;;;;;;;4971990;28;20272;-82
2024/02/04 03:34:41;;;;;;;20.77;11.63;;;;;;;;;;5007660;28;20687;-82
2024/02/04 03:37:06;;;;;;;21.07;11.87;;;;;;;;;;4976310;28;20208;-82
2024/02/04 03:39:32;;;;;;;21.63;12.43;;;;;;;;;;4999106;28;20300;-81
2024/02/04 03:41:58;;;;;;;24.43;12.93;;;;;;;;;;5004478;28;20213;-81
2024/02/04 03:44:24;;;;;;;18.90;11.33;;;;;;;;;;5001317;28;20845;-82
2024/02/04 03:46:50;;;;;;;18.10;11.87;;;;;;;;;;4982339;28;20208;-83
2024/02/04 03:49:16;;;;;;;21.73;12.57;;;;;;;;;;4983368;28;20224;-83
2024/02/04 03:51:41;;;;;;;20.33;12.63;;;;;;;;;;5000131;28;20217;-84
2024/02/04 03:54:07;;;;;;;19.67;12.17;;;;;;;;;;4987389;28;20216;-83
2024/02/04 03:56:32;;;;;;;19.50;12.30;;;;;;;;;;5008564;28;20239;-83
2024/02/04 04:02:48;;;;;;;22.63;12.90;;;;;;;;;;5021499;28;20569;-82
2024/02/04 04:05:14;;;;;;;22.13;11.80;;;;;;;;;;4999251;28;20224;-83
2024/02/04 04:07:40;;;;;;;22.20;12.20;;;;;;;;;;4995386;28;20665;-82
2024/02/04 04:10:08;;;;;;;16.73;11.80;;;;;;;;;;5003515;28;20223;-82
2024/02/04 04:12:33;;;;;;;20.50;12.47;;;;;;;;;;4974562;28;20221;-82
2024/02/04 04:15:03;;;;;;;22.53;12.87;;;;;;;;;;4978995;28;20294;-83
2024/02/04 04:17:31;;;;;;;22.07;11.67;;;;;;;;;;5004843;28;20232;-84
2024/02/04 04:19:59;;;;;;;20.77;11.60;;;;;;;;;;4982792;28;20213;-81
2024/02/04 04:22:27;;;;;;;17.77;10.10;;;;;;;;;;5002245;28;20212;-84
2024/02/04 04:24:57;;;;;;;14.87;10.13;;;;;;;;;;4996655;28;20287;-83
2024/02/04 04:27:25;;;;;;;18.03;11.23;;;;;;;;;;4994298;28;20232;-82
2024/02/04 04:29:53;;;;;;;18.83;10.10;;;;;;;;;;5011665;28;20216;-84
2024/02/04 04:32:21;;;;;;;17.50;9.50;;;;;;;;;;4978252;28;20315;-83
2024/02/04 04:34:47;;;;;;;14.47;8.97;;;;;;;;;;4993840;28;20230;-83
2024/02/04 04:37:14;;;;;;;14.60;8.70;;;;;;;;;;4994314;28;20216;-84
2024/02/04 04:39:45;;;;;;;14.40;9.37;;;;;;;;;;4987046;28;20224;-84
2024/02/04 04:42:12;;;;;;;19.70;9.07;;;;;;;;;;4972860;28;21167;-84
2024/02/04 04:44:38;;;;;;;17.17;8.80;;;;;;;;;;4999673;28;20225;-84
2024/02/04 04:47:04;;;;;;;19.73;9.60;;;;;;;;;;4994767;28;20239;-81
2024/02/04 04:49:32;;;;;;;16.47;9.03;;;;;;;;;;4985519;28;20601;-82
2024/02/04 04:51:57;;;;;;;18.20;8.83;;;;;;;;;;4984015;28;20231;-83
2024/02/04 04:54:25;;;;;;;14.43;7.93;;;;;;;;;;4981609;28;20228;-84
2024/02/04 04:56:53;;;;;;;13.57;8.30;;;;;;;;;;4988377;28;20516;-83
2024/02/04 04:59:18;;;;;;;17.30;7.90;;;;;;;;;;5001368;28;20252;-83
2024/02/04 05:01:47;;;;;;;13.70;7.03;;;;;;;;;;4987340;28;20733;-84
2024/02/04 05:04:18;;;;;;;15.13;8.00;;;;;;;;;;4981885;28;20238;-83
2024/02/04 05:06:46;;;;;;;12.40;7.00;;;;;;;;;;5006211;28;20224;-84
2024/02/04 05:09:14;;;;;;;12.80;7.23;;;;;;;;;;4997388;28;20645;-83
2024/02/04 05:11:41;;;;;;;14.37;6.80;;;;;;;;;;5000490;28;20310;-84
2024/02/04 05:14:10;;;;;;;19.03;6.97;;;;;;;;;;4992840;28;20256;-82
2024/02/04 05:16:36;;;;;;;15.50;7.07;;;;;;;;;;4987822;28;20232;-82
2024/02/04 05:19:05;;;;;;;11.13;6.73;;;;;;;;;;4991003;28;20216;-82
2024/02/04 05:21:30;;;;;;;17.50;7.13;;;;;;;;;;4965580;28;20231;-82
2024/02/04 05:23:56;;;;;;;12.73;6.53;;;;;;;;;;4984906;28;20217;-84
2024/02/04 05:26:25;;;;;;;15.13;5.97;;;;;;;;;;5001066;28;20666;-83
2024/02/04 05:28:51;;;;;;;14.50;6.17;;;;;;;;;;4995320;28;20207;-84
2024/02/04 05:31:16;;;;;;;15.63;5.97;;;;;;;;;;5003127;28;20238;-83
2024/02/04 05:33:42;;;;;;;13.33;5.77;;;;;;;;;;5002765;28;20536;-84
2024/02/04 05:36:07;;;;;;;10.47;5.00;;;;;;;;;;4982786;28;20217;-83
2024/02/04 05:38:34;;;;;;;16.00;5.97;;;;;;;;;;4985535;28;20216;-81
2024/02/04 05:40:59;;;;;;;14.37;5.50;;;;;;;;;;4983916;28;20247;-84
2024/02/04 05:43:29;;;;;;;13.27;5.20;;;;;;;;;;4993436;28;20217;-83
2024/02/04 05:45:55;;;;;;;10.17;4.67;;;;;;;;;;4998631;28;20232;-83
2024/02/04 05:48:20;;;;;;;11.87;4.67;;;;;;;;;;4995316;28;20217;-83
2024/02/04 05:50:48;;;;;;;12.87;4.60;;;;;;;;;;4979495;28;20228;-84
2024/02/04 05:53:16;;;;;;;13.53;4.47;;;;;;;;;;4989922;28;20220;-81
2024/02/04 05:55:41;;;;;;;13.50;4.53;;;;;;;;;;4985498;28;20611;-83
2024/02/04 05:58:10;;;;;;;10.87;4.10;;;;;;;;;;5001919;28;20216;-84
2024/02/04 06:00:38;;;;;;;8.83;3.70;;;;;;;;;;4992028;28;20719;-84
2024/02/04 06:03:04;;;;;;;9.23;3.57;;;;;;;;;;5003781;28;20227;-81
2024/02/04 06:05:29;;;;;;;10.33;4.03;;;;;;;;;;4986904;28;20228;-82
2024/02/04 06:07:57;;;;;;;12.47;3.53;;;;;;;;;;4984885;28;20238;-83
2024/02/04 06:10:25;;;;;;;10.63;3.37;;;;;;;;;;4976817;28;20213;-83
2024/02/04 06:12:51;;;;;;;13.40;3.40;;;;;;;;;;4971435;28;20227;-82
2024/02/04 06:15:17;;;;;;;9.03;3.10;;;;;;;;;;4996699;28;20219;-83
2024/02/04 06:17:44;;;;;;;14.23;3.03;;;;;;;;;;5007555;28;20583;-83
2024/02/04 06:20:10;;;;;;;8.13;2.93;;;;;;;;;;4986067;28;20215;-83
2024/02/04 06:22:39;;;;;;;8.40;2.80;;;;;;;;;;5008166;28;20238;-82
2024/02/04 06:25:12;;;;;;;11.33;2.77;;;;;;;;;;4999400;28;20216;-82
2024/02/04 06:27:37;;;;;;;9.47;2.20;;;;;;;;;;4978948;28;20705;-84
2024/02/04 06:30:03;;;;;;;7.57;2.53;;;;;;;;;;4992865;28;20227;-82
2024/02/04 06:32:31;;;;;;;6.20;2.30;;;;;;;;;;4979735;28;20221;-81
2024/02/04 06:34:57;;;;;;;7.77;2.20;;;;;;;;;;4999896;28;20311;-82
2024/02/04 06:37:25;;;;;;;7.80;2.10;;;;;;;;;;4986417;28;20725;-82
2024/02/04 06:39:53;;;;;;;10.13;2.20;;;;;;;;;;4987502;28;20225;-82
2024/02/04 06:42:18;;;;;;;8.40;2.20;;;;;;;;;;4995711;28;20217;-82
2024/02/04 06:44:45;;;;;;;10.10;2.80;;;;;;;;;;4982578;28;20227;-83
2024/02/04 06:47:13;;;;;;;9.83;2.30;;;;;;;;;;4994033;28;20226;-81
2024/02/04 06:49:45;;;;;;;7.80;2.77;;;;;;;;;;4981446;28;20232;-82
2024/02/04 06:52:11;;;;;;;9.03;2.40;;;;;;;;;;4994479;28;20704;-83
2024/02/04 06:54:36;;;;;;;7.83;2.40;;;;;;;;;;4973228;28;20220;-86
2024/02/04 06:57:02;;;;;;;10.23;2.33;;;;;;;;;;4976105;28;20225;-82
2024/02/04 06:59:30;;;;;;;7.23;2.00;;;;;;;;;;4967986;28;20243;-83
2024/02/04 07:01:58;;;;;;;6.47;2.13;;;;;;;;;;4972579;28;20212;-80
2024/02/04 07:04:25;;;;;;;7.33;2.23;;;;;;;;;;4980928;28;20714;-83
2024/02/04 07:06:51;;;;;;;7.93;2.00;;;;;;;;;;4979604;28;20246;-82
2024/02/04 07:09:17;;;;;;;7.13;2.50;;;;;;;;;;4991006;28;20224;-82
2024/02/04 07:11:45;;;;;;;6.43;1.97;;;;;;;;;;4996696;28;20768;-82
2024/02/04 07:14:11;;;;;;;8.20;2.10;;;;;;;;;;4980366;28;20235;-82
2024/02/04 07:16:36;;;;;;;6.03;2.07;;;;;;;;;;4980219;28;20233;-84
2024/02/04 07:19:02;;;;;;;9.03;2.00;;;;;;;;;;4983798;28;20295;-83
2024/02/04 07:21:30;;;;;;;7.87;2.10;;;;;;;;;;4998412;28;20292;-83
2024/02/04 07:23:58;;;;;;;7.23;2.40;;;;;;;;;;4989311;28;20299;-83
2024/02/04 07:26:23;;;;;;;9.80;1.93;;;;;;;;;;4989914;28;20308;-83
2024/02/04 07:28:49;;;;;;;8.57;2.23;;;;;;;;;;4990034;28;20217;-82
2024/02/04 07:31:18;;;;;;;5.10;2.20;;;;;;;;;;4990270;28;20274;-84
2024/02/04 07:33:46;;;;;;;5.40;2.13;;;;;;;;;;4981640;28;20228;-81
2024/02/04 07:36:11;;;;;;;9.03;2.40;;;;;;;;;;4988251;28;20225;-83
2024/02/04 07:38:42;;;;;;;11.87;2.90;;;;;;;;;;4999997;28;20242;-83
2024/02/04 07:41:07;;;;;;;9.90;2.87;;;;;;;;;;4982304;28;20212;-84
2024/02/04 07:43:33;;;;;;;8.97;2.87;;;;;;;;;;4989804;28;20683;-83
2024/02/04 07:45:58;;;;;;;8.57;3.40;;;;;;;;;;4965165;28;20218;-84
2024/02/04 07:48:24;;;;;;;6.40;2.73;;;;;;;;;;4967344;28;20282;-81
2024/02/04 07:50:52;;;;;;;10.23;3.30;;;;;;;;;;4963142;28;20311;-84
2024/02/04 07:53:22;;;;;;;10.20;3.47;;;;;;;;;;4987071;28;20232;-83
2024/02/04 07:55:49;;;;;;;11.27;3.80;;;;;;;;;;4999603;28;20240;-85
2024/02/04 07:58:17;;;;;;;10.37;3.70;;;;;;;;;;4999417;28;20283;-82
2024/02/04 08:00:45;;;;;;;11.27;3.77;;;;;;;;;;4997550;28;20247;-82
2024/02/04 08:03:13;;;;;;;8.63;3.20;;;;;;;;;;4999877;28;20212;-82
2024/02/04 08:05:39;;;;;;;6.83;3.37;;;;;;;;;;4969350;28;20228;-83
2024/02/04 08:08:05;;;;;;;6.83;3.57;;;;;;;;;;4982147;28;20666;-84
2024/02/04 08:10:31;;;;;;;11.47;4.10;;;;;;;;;;4963805;28;20232;-84
2024/02/04 08:12:58;;;;;;;14.03;5.20;;;;;;;;;;4997971;28;20216;-84
2024/02/04 08:15:27;;;;;;;8.93;4.10;;;;;;;;;;4998514;28;20235;-83
2024/02/04 08:17:55;;;;;;;9.03;4.47;;;;;;;;;;4987002;28;20248;-81
2024/02/04 08:20:21;;;;;;;11.80;4.60;;;;;;;;;;4992751;28;20255;-83
2024/02/04 08:22:47;;;;;;;11.73;4.77;;;;;;;;;;4999459;28;20319;-83
2024/02/04 08:25:15;;;;;;;10.93;4.63;;;;;;;;;;4993963;28;20231;-85
2024/02/04 08:27:41;;;;;;;9.57;4.13;;;;;;;;;;4966152;28;20220;-85
2024/02/04 08:30:07;;;;;;;9.07;4.30;;;;;;;;;;5000436;28;20627;-83
2024/02/04 08:32:32;;;;;;;8.17;4.33;;;;;;;;;;4990301;28;20238;-83
2024/02/04 08:35:00;;;;;;;8.57;4.00;;;;;;;;;;4990676;28;20219;-83
2024/02/04 08:37:28;;;;;;;10.90;3.97;;;;;;;;;;4988953;28;20219;-83
2024/02/04 08:39:53;;;;;;;11.90;4.37;;;;;;;;;;4984800;28;20704;-84
2024/02/04 08:42:19;;;;;;;12.03;4.13;;;;;;;;;;4975477;28;20584;-79
2024/02/04 08:44:44;;;;;;;9.33;3.70;;;;;;;;;;4987758;28;20309;-82
2024/02/04 08:47:12;;;;;;;11.83;3.50;;;;;;;;;;4958857;28;20234;-84
2024/02/04 08:49:45;;;;;;;10.53;3.70;;;;;;;;;;4998311;28;20235;-83
2024/02/04 08:52:10;;;;;;;9.43;3.80;;;;;;;;;;4976887;28;20225;-82
2024/02/04 08:54:38;;;;;;;8.67;3.33;;;;;;;;;;4968476;28;20282;-83
2024/02/04 08:57:04;;;;;;;10.80;3.40;;;;;;;;;;5007166;28;20628;-80
2024/02/04 08:59:29;;;;;;;8.73;3.57;;;;;;;;;;5001577;28;20227;-82
2024/02/04 09:01:55;;;;;;;11.07;3.90;;;;;;;;;;4991728;28;20621;-83
2024/02/04 09:04:20;;;;;;;8.80;3.30;;;;;;;;;;4982183;28;20225;-83
2024/02/04 09:06:46;;;;;;;8.17;3.30;;;;;;;;;;4989566;28;20229;-84
2024/02/04 09:09:12;;;;;;;8.37;3.30;;;;;;;;;;4970136;28;20306;-84
2024/02/04 09:11:38;;;;;;;8.83;3.30;;;;;;;;;;4975957;28;20225;-83
2024/02/04 09:14:07;;;;;;;7.90;3.07;;;;;;;;;;4991927;28;20295;-82
2024/02/04 09:16:37;;;;;;;7.67;3.00;;;;;;;;;;4966181;28;20255;-82
2024/02/04 09:19:05;;;;;;;7.90;3.23;;;;;;;;;;4999008;28;20222;-82
2024/02/04 09:21:31;;;;;;;7.33;2.67;;;;;;;;;;4991031;28;20232;-83
2024/02/04 09:23:57;;;;;;;9.60;2.80;;;;;;;;;;4981784;28;20223;-80
2024/02/04 09:26:25;;;;;;;7.67;3.00;;;;;;;;;;4980884;28;20232;-83
2024/02/04 09:28:53;;;;;;;12.83;2.80;;;;;;;;;;4981465;28;20233;-83
2024/02/04 09:31:21;;;;;;;9.73;3.10;;;;;;;;;;4975931;28;20300;-84
2024/02/04 09:33:47;;;;;;;10.43;2.77;;;;;;;;;;5021130;28;20259;-84
2024/02/04 09:36:17;;;;;;;7.87;2.60;;;;;;;;;;5007289;28;20213;-83
2024/02/04 09:38:43;;;;;;;8.10;2.87;;;;;;;;;;4987358;28;20217;-84
2024/02/04 09:41:08;;;;;;;9.43;2.70;;;;;;;;;;4996891;28;20231;-77
2024/02/04 09:43:35;;;;;;;8.10;2.77;;;;;;;;;;5005406;28;20244;-78
2024/02/04 09:46:00;;;;;;;10.53;2.63;;;;;;;;;;5001162;28;20791;-78
2024/02/04 09:48:29;;;;;;;7.93;2.47;;;;;;;;;;4985666;28;20296;-78
2024/02/04 09:50:57;;;;;;;9.20;2.20;;;;;;;;;;4988013;28;20278;-79
2024/02/04 09:53:30;;;;;;;8.10;2.10;;;;;;;;;;4992969;28;20255;-78
2024/02/04 09:55:56;;;;;;;8.63;2.23;;;;;;;;;;4992406;28;20227;-77
2024/02/04 09:58:21;;;;;;;9.60;2.40;;;;;;;;;;4980822;28;20231;-78
2024/02/04 10:00:49;;;;;;;10.33;2.70;;;;;;;;;;4986754;28;20567;-79
2024/02/04 10:03:15;;;;;;;5.33;1.90;;;;;;;;;;4995085;28;20270;-79
2024/02/04 10:05:43;;;;;;;9.03;2.53;;;;;;;;;;5014434;28;20657;-78
2024/02/04 10:08:11;;;;;;;6.33;2.10;;;;;;;;;;5026164;28;20224;-79
2024/02/04 10:10:36;;;;;;;6.87;2.00;;;;;;;;;;4999030;28;20312;-78
2024/02/04 10:13:08;;;;;;;10.27;2.43;;;;;;;;;;4987794;28;20224;-77
2024/02/04 10:15:34;;;;;;;6.87;2.30;;;;;;;;;;5009193;28;20244;-79
2024/02/04 10:18:03;;;;;;;8.73;2.40;;;;;;;;;;5006512;28;20883;-79
2024/02/04 10:20:33;;;;;;;8.67;2.30;;;;;;;;;;5000388;28;20230;-78
2024/02/04 10:23:01;;;;;;;8.07;2.03;;;;;;;;;;5011721;28;20236;-78
2024/02/04 10:25:27;;;;;;;9.00;2.27;;;;;;;;;;5001130;28;20240;-80
2024/02/04 10:27:53;;;;;;;8.43;2.17;;;;;;;;;;4985163;28;20220;-79
2024/02/04 10:30:20;;;;;;;11.43;2.20;;;;;;;;;;5017193;28;21040;-81
2024/02/04 10:32:48;;;;;;;6.80;1.83;;;;;;;;;;5007871;28;20232;-79
2024/02/04 10:35:14;;;;;;;8.40;2.13;;;;;;;;;;5014093;28;20223;-80
2024/02/04 10:37:40;;;;;;;9.47;2.47;;;;;;;;;;4993500;28;20315;-79
2024/02/04 10:40:07;;;;;;;7.03;1.77;;;;;;;;;;4981560;28;20212;-78
2024/02/04 10:42:35;;;;;;;8.67;2.40;;;;;;;;;;4988346;28;20220;-79
2024/02/04 10:45:03;;;;;;;11.73;2.30;;;;;;;;;;5000937;28;20280;-80
2024/02/04 10:47:36;;;;;;;12.20;2.20;;;;;;;;;;4972571;28;20220;-79
2024/02/04 10:50:03;;;;;;;9.43;2.13;;;;;;;;;;4994927;28;20318;-78
2024/02/04 10:52:28;;;;;;;10.07;2.20;;;;;;;;;;4998097;28;20243;-76
2024/02/04 10:54:54;;;;;;;9.73;2.20;;;;;;;;;;4972196;28;20308;-77
2024/02/04 10:57:26;;;;;;;9.47;2.27;;;;;;;;;;4974792;28;20220;-77
2024/02/04 10:59:52;;;;;;;8.30;2.40;;;;;;;;;;4998902;28;20228;-79
2024/02/04 11:02:17;;;;;;;10.43;2.47;;;;;;;;;;5013698;28;20219;-79
2024/02/04 11:04:48;;;;;;;6.80;1.40;;;;;;;;;;4988404;28;20616;-80
2024/02/04 11:07:13;;;;;;;7.70;2.40;;;;;;;;;;4981604;28;20211;-81
2024/02/04 11:09:39;;;;;;;7.13;2.00;;;;;;;;;;4995247;28;20282;-80
2024/02/04 11:12:08;;;;;;;10.53;2.60;;;;;;;;;;4972056;28;20228;-80
2024/02/04 11:14:34;;;;;;;12.87;2.53;;;;;;;;;;4966723;28;20627;-78
2024/02/04 11:17:21;;;;;;;8.70;2.60;;;;;;;;;;4992179;28;20225;-80
2024/02/04 11:20:19;;;;;;;15.70;5.20;;;;;;;;;;5009715;28;20220;-79
2024/02/04 11:23:10;;;;;;;10.07;2.77;;;;;;;;;;4985129;28;20262;-77
2024/02/04 11:25:49;;;;;;;11.60;3.27;;;;;;;;;;5002840;28;20236;-79
2024/02/04 11:28:15;;;;;;;9.00;3.10;;;;;;;;;;4987957;28;20222;-77
2024/02/04 11:30:43;;;;;;;9.03;3.13;;;;;;;;;;4990096;28;20235;-80
2024/02/04 11:33:10;;;;;;;8.33;2.50;;;;;;;;;;4974686;28;20220;-76
2024/02/04 11:35:41;;;;;;;9.30;2.40;;;;;;;;;;4990517;28;20760;-79
2024/02/04 11:38:07;;;;;;;5.73;2.97;;;;;;;;;;4995525;28;20629;-78
2024/02/04 11:40:36;;;;;;;9.73;3.77;;;;;;;;;;4980979;28;20697;-80
2024/02/04 11:43:09;;;;;;;8.23;2.90;;;;;;;;;;4995947;28;20307;-78
2024/02/04 11:45:39;;;;;;;7.10;2.50;;;;;;;;;;4987428;28;20755;-80
2024/02/04 11:48:07;;;;;;;11.40;3.20;;;;;;;;;;4981483;28;20343;-77
2024/02/04 11:50:35;;;;;;;10.37;3.70;;;;;;;;;;4968443;28;20283;-78
2024/02/04 11:53:10;;;;;;;11.80;3.30;;;;;;;;;;5012866;28;20304;-79
2024/02/04 11:55:39;;;;;;;7.07;3.00;;;;;;;;;;5009556;28;20224;-78
2024/02/04 11:58:05;;;;;;;8.53;2.83;;;;;;;;;;4979685;28;20221;-80
2024/02/04 12:00:33;;;;;;;13.23;4.57;;;;;;;;;;4996703;28;20235;-80
2024/02/04 12:03:02;;;;;;;8.27;3.00;;;;;;;;;;4993739;28;20723;-79
2024/02/04 12:05:30;;;;;;;6.53;2.37;;;;;;;;;;4983309;28;20666;-76
2024/02/04 12:07:56;;;;;;;5.93;2.30;;;;;;;;;;4980570;28;20228;-77
2024/02/04 12:10:22;;;;;;;6.50;2.90;;;;;;;;;;4966246;28;20229;-80
2024/02/04 12:12:47;;;;;;;9.87;3.23;;;;;;;;;;4978430;28;20236;-81
2024/02/04 12:15:13;;;;;;;10.53;4.00;;;;;;;;;;4979099;28;20212;-79
2024/02/04 12:17:39;;;;;;;9.03;3.90;;;;;;;;;;4993332;28;20624;-78
2024/02/04 12:20:05;;;;;;;8.10;3.93;;;;;;;;;;4979096;28;20607;-79
2024/02/04 12:22:31;;;;;;;9.90;3.37;;;;;;;;;;4992416;28;20304;-78
2024/02/04 12:25:02;;;;;;;9.63;3.30;;;;;;;;;;4978735;28;20228;-81
2024/02/04 12:27:29;;;;;;;11.43;2.70;;;;;;;;;;4982068;28;20224;-81
2024/02/04 12:30:00;;;;;;;8.97;2.90;;;;;;;;;;4995762;28;20221;-79
2024/02/04 12:32:25;;;;;;;7.83;2.53;;;;;;;;;;4978155;28;20247;-84
2024/02/04 12:34:54;;;;;;;8.80;3.10;;;;;;;;;;4993285;28;20228;-82
2024/02/04 12:37:19;;;;;;;8.53;2.47;;;;;;;;;;4994956;28;20721;-80
2024/02/04 12:39:49;;;;;;;7.10;2.70;;;;;;;;;;4960905;28;20224;-78
2024/02/04 12:42:19;;;;;;;8.87;3.60;;;;;;;;;;4996546;28;20247;-78
2024/02/04 12:44:49;;;;;;;6.90;2.37;;;;;;;;;;5003073;28;20295;-79
2024/02/04 12:47:19;;;;;;;7.67;2.30;;;;;;;;;;4991955;28;20906;-79
2024/02/04 12:49:44;;;;;;;8.77;2.73;;;;;;;;;;4981755;28;20221;-80
2024/02/04 12:52:10;;;;;;;8.00;1.93;;;;;;;;;;5001729;28;20294;-80
2024/02/04 12:54:45;;;;;;;8.60;2.43;;;;;;;;;;4994136;28;20233;-78
2024/02/04 12:57:24;;;;;;;5.40;2.33;;;;;;;;;;4994270;28;20220;-80
2024/02/04 12:59:50;;;;;;;5.60;2.00;;;;;;;;;;4972623;28;20254;-80
2024/02/04 13:02:21;;;;;;;8.20;3.00;;;;;;;;;;4984956;28;20224;-81
2024/02/04 13:04:49;;;;;;;6.40;2.00;;;;;;;;;;4970928;28;20302;-78
2024/02/04 13:07:17;;;;;;;6.63;2.23;;;;;;;;;;4999127;28;20227;-80
2024/02/04 13:09:43;;;;;;;7.83;2.77;;;;;;;;;;4981587;28;20216;-79
2024/02/04 13:12:09;;;;;;;6.67;2.20;;;;;;;;;;4982460;28;20228;-81
2024/02/04 13:14:36;;;;;;;7.93;2.13;;;;;;;;;;5014349;28;20874;-80
2024/02/04 13:17:02;;;;;;;5.67;1.90;;;;;;;;;;4989405;28;20212;-77
2024/02/04 13:19:34;;;;;;;6.20;2.30;;;;;;;;;;5001119;28;20220;-80
2024/02/04 13:22:00;;;;;;;5.63;1.90;;;;;;;;;;4971328;28;20271;-78
2024/02/04 13:24:26;;;;;;;7.67;2.20;;;;;;;;;;4991372;28;20734;-82
2024/02/04 13:26:53;;;;;;;5.80;1.90;;;;;;;;;;4995936;28;20591;-77
2024/02/04 13:29:19;;;;;;;5.83;1.93;;;;;;;;;;5010954;28;20222;-78
2024/02/04 13:31:44;;;;;;;6.53;2.30;;;;;;;;;;4984506;28;20298;-78
2024/02/04 13:34:10;;;;;;;6.47;1.97;;;;;;;;;;4981188;28;20212;-78
2024/02/04 13:36:40;;;;;;;7.70;1.97;;;;;;;;;;4995225;28;20223;-78
2024/02/04 13:39:06;;;;;;;7.10;2.23;;;;;;;;;;4991089;28;20224;-82
2024/02/04 13:41:32;;;;;;;5.43;1.80;;;;;;;;;;5017436;28;20683;-82
2024/02/04 13:44:00;;;;;;;8.70;2.97;;;;;;;;;;5006045;28;20277;-79
2024/02/04 13:46:25;;;;;;;7.33;2.37;;;;;;;;;;4993675;28;20224;-78
2024/02/04 13:48:53;;;;;;;8.03;2.70;;;;;;;;;;4994941;28;20235;-77
2024/02/04 13:51:21;;;;;;;9.07;3.00;;;;;;;;;;4973411;28;20220;-78
2024/02/04 13:53:46;;;;;;;5.07;1.87;;;;;;;;;;5008127;28;20333;-79
2024/02/04 13:56:12;;;;;;;4.73;1.93;;;;;;;;;;4979772;28;20240;-79
2024/02/04 13:58:40;;;;;;;6.33;2.33;;;;;;;;;;5015658;28;20216;-79
2024/02/04 14:01:08;;;;;;;7.80;2.47;;;;;;;;;;5011665;28;20228;-78
2024/02/04 14:03:38;;;;;;;6.83;1.97;;;;;;;;;;5019613;28;20216;-80
2024/02/04 14:06:04;;;;;;;4.77;1.63;;;;;;;;;;4974474;28;20591;-82
2024/02/04 14:08:30;;;;;;;4.57;2.00;;;;;;;;;;4997173;28;20259;-77
2024/02/04 14:10:55;;;;;;;6.70;1.90;;;;;;;;;;4970147;28;20225;-77
2024/02/04 14:13:21;;;;;;;6.50;2.00;;;;;;;;;;4981425;28;20341;-79
2024/02/04 14:15:46;;;;;;;6.57;1.83;;;;;;;;;;4982330;28;20228;-79
2024/02/04 14:18:12;;;;;;;5.47;1.60;;;;;;;;;;5012935;28;20277;-78
2024/02/04 14:20:37;;;;;;;7.07;2.87;;;;;;;;;;4994254;28;20239;-78
2024/02/04 14:23:03;;;;;;;4.03;1.90;;;;;;;;;;4995324;28;20220;-77
2024/02/04 14:25:29;;;;;;;5.17;1.80;;;;;;;;;;4983229;28;20302;-77
2024/02/04 14:27:54;;;;;;;6.83;1.70;;;;;;;;;;4992519;28;20226;-78
2024/02/04 14:30:23;;;;;;;7.17;2.37;;;;;;;;;;5007060;28;20220;-78
2024/02/04 14:32:48;;;;;;;5.07;1.87;;;;;;;;;;4997116;28;20220;-79
2024/02/04 14:35:19;;;;;;;5.27;2.53;;;;;;;;;;4970252;28;20224;-78
2024/02/04 14:37:47;;;;;;;6.23;2.87;;;;;;;;;;5003262;28;20224;-78
2024/02/04 14:40:13;;;;;;;6.77;2.70;;;;;;;;;;5019137;28;20616;-79